sensor_id;sensor_type;location;lat;lon;timestamp;temperature;humidity
9323;DHT22;4700;48.822;9.270;2022-09-01T00:00:16;15.20;1.00
9323;DHT22;4700;48.822;9.270;2022-09-01T00:03:05;15.10;1.00
9323;DHT22;4700;48.822;9.270;2022-09-01T00:05:51;15.10;1.00
9323;DHT22;4700;48.822;9.270;2022-09-01T00:08:42;15.10;1.00
9323;DHT22;4700;48.822;9.270;2022-09-01T00:11:28;15.10;1.00
9323;DHT22;4700;48.822;9.270;2022-09-01T00:14:14;15.10;1.00
9323;DHT22;4700;48.822;9.270;2022-09-01T00:17:02;15.10;1.00
9323;DHT22;4700;48.822;9.270;2022-09-01T00:19:48;15.10;1.00
9323;DHT22;4700;48.822;9.270;2022-09-01T00:22:34;15.10;1.00
9323;DHT22;4700;48.822;9.270;2022-09-01T00:25:22;15.00;1.00
9323;DHT22;4700;48.822;9.270;2022-09-01T00:28:07;15.00;1.00
9323;DHT22;4700;48.822;9.270;2022-09-01T00:30:53;15.00;1.00
9323;DHT22;4700;48.822;9.270;2022-09-01T00:33:39;15.00;1.00
9323;DHT22;4700;48.822;9.270;2022-09-01T00:36:25;15.00;1.00
9323;DHT22;4700;48.822;9.270;2022-09-01T00:39:11;15.00;1.00
9323;DHT22;4700;48.822;9.270;2022-09-01T00:41:58;15.00;1.00
9323;DHT22;4700;48.822;9.270;2022-09-01T00:44:44;15.10;1.00
9323;DHT22;4700;48.822;9.270;2022-09-01T00:47:30;15.10;1.00
9323;DHT22;4700;48.822;9.270;2022-09-01T00:50:17;15.10;1.00
9323;DHT22;4700;48.822;9.270;2022-09-01T00:53:04;15.20;1.00
9323;DHT22;4700;48.822;9.270;2022-09-01T00:55:51;15.20;1.00
9323;DHT22;4700;48.822;9.270;2022-09-01T00:58:38;15.10;1.00
9323;DHT22;4700;48.822;9.270;2022-09-01T01:01:24;15.10;1.00
9323;DHT22;4700;48.822;9.270;2022-09-01T01:04:10;15.00;1.00
9323;DHT22;4700;48.822;9.270;2022-09-01T01:06:59;15.00;1.00
9323;DHT22;4700;48.822;9.270;2022-09-01T01:09:46;15.00;1.00
9323;DHT22;4700;48.822;9.270;2022-09-01T01:12:31;14.90;1.00
9323;DHT22;4700;48.822;9.270;2022-09-01T01:15:20;14.90;1.00
9323;DHT22;4700;48.822;9.270;2022-09-01T01:18:06;14.90;1.00
9323;DHT22;4700;48.822;9.270;2022-09-01T01:20:58;14.90;1.00
9323;DHT22;4700;48.822;9.270;2022-09-01T01:24:22;14.90;1.00
9323;DHT22;4700;48.822;9.270;2022-09-01T01:27:11;14.80;1.00
9323;DHT22;4700;48.822;9.270;2022-09-01T01:29:56;14.80;1.00
9323;DHT22;4700;48.822;9.270;2022-09-01T01:32:43;14.70;1.00
9323;DHT22;4700;48.822;9.270;2022-09-01T01:35:31;14.70;1.00
9323;DHT22;4700;48.822;9.270;2022-09-01T01:38:17;14.80;1.00
9323;DHT22;4700;48.822;9.270;2022-09-01T01:41:05;14.80;1.00
9323;DHT22;4700;48.822;9.270;2022-09-01T01:43:53;14.80;1.00
9323;DHT22;4700;48.822;9.270;2022-09-01T01:46:43;14.70;1.00
9323;DHT22;4700;48.822;9.270;2022-09-01T01:49:29;14.70;1.00
9323;DHT22;4700;48.822;9.270;2022-09-01T01:52:14;14.60;1.00
9323;DHT22;4700;48.822;9.270;2022-09-01T01:55:00;14.60;1.00
9323;DHT22;4700;48.822;9.270;2022-09-01T01:57:47;14.60;1.00
9323;DHT22;4700;48.822;9.270;2022-09-01T02:00:35;14.60;1.00
9323;DHT22;4700;48.822;9.270;2022-09-01T02:03:24;14.60;1.00
9323;DHT22;4700;48.822;9.270;2022-09-01T02:06:12;14.60;1.00
9323;DHT22;4700;48.822;9.270;2022-09-01T02:08:57;14.60;1.00
9323;DHT22;4700;48.822;9.270;2022-09-01T02:11:46;14.50;1.00
9323;DHT22;4700;48.822;9.270;2022-09-01T02:14:38;14.50;1.00
9323;DHT22;4700;48.822;9.270;2022-09-01T02:17:23;14.50;1.00
9323;DHT22;4700;48.822;9.270;2022-09-01T02:20:10;14.50;1.00
9323;DHT22;4700;48.822;9.270;2022-09-01T02:22:59;14.40;1.00
9323;DHT22;4700;48.822;9.270;2022-09-01T02:25:57;14.40;1.00
9323;DHT22;4700;48.822;9.270;2022-09-01T02:28:45;14.40;1.00
9323;DHT22;4700;48.822;9.270;2022-09-01T02:31:35;14.30;1.00
9323;DHT22;4700;48.822;9.270;2022-09-01T02:34:24;14.30;1.00
9323;DHT22;4700;48.822;9.270;2022-09-01T02:37:15;14.20;1.00
9323;DHT22;4700;48.822;9.270;2022-09-01T02:40:00;14.20;1.00
9323;DHT22;4700;48.822;9.270;2022-09-01T02:42:46;14.20;1.00
9323;DHT22;4700;48.822;9.270;2022-09-01T02:45:36;14.10;1.00
9323;DHT22;4700;48.822;9.270;2022-09-01T02:48:27;14.10;1.00
9323;DHT22;4700;48.822;9.270;2022-09-01T02:51:22;14.00;1.00
9323;DHT22;4700;48.822;9.270;2022-09-01T02:54:09;14.00;1.00
9323;DHT22;4700;48.822;9.270;2022-09-01T02:57:00;14.00;1.00
9323;DHT22;4700;48.822;9.270;2022-09-01T02:59:47;13.90;1.00
9323;DHT22;4700;48.822;9.270;2022-09-01T03:02:33;13.90;1.00
9323;DHT22;4700;48.822;9.270;2022-09-01T03:05:22;13.90;1.00
9323;DHT22;4700;48.822;9.270;2022-09-01T03:08:11;13.80;1.00
9323;DHT22;4700;48.822;9.270;2022-09-01T03:10:59;13.80;1.00
9323;DHT22;4700;48.822;9.270;2022-09-01T03:13:46;13.80;1.00
9323;DHT22;4700;48.822;9.270;2022-09-01T03:16:32;13.80;1.00
9323;DHT22;4700;48.822;9.270;2022-09-01T03:19:18;13.70;1.00
9323;DHT22;4700;48.822;9.270;2022-09-01T03:22:05;13.90;1.00
9323;DHT22;4700;48.822;9.270;2022-09-01T03:24:51;13.90;1.00
9323;DHT22;4700;48.822;9.270;2022-09-01T03:27:36;13.90;1.00
9323;DHT22;4700;48.822;9.270;2022-09-01T03:30:22;13.90;1.00
9323;DHT22;4700;48.822;9.270;2022-09-01T03:33:07;13.90;1.00
9323;DHT22;4700;48.822;9.270;2022-09-01T03:35:53;14.00;1.00
9323;DHT22;4700;48.822;9.270;2022-09-01T03:38:40;13.90;1.00
9323;DHT22;4700;48.822;9.270;2022-09-01T03:41:28;13.90;1.00
9323;DHT22;4700;48.822;9.270;2022-09-01T03:44:14;13.90;1.00
9323;DHT22;4700;48.822;9.270;2022-09-01T03:47:00;13.90;1.00
9323;DHT22;4700;48.822;9.270;2022-09-01T03:49:45;13.90;1.00
9323;DHT22;4700;48.822;9.270;2022-09-01T03:52:33;13.80;1.00
9323;DHT22;4700;48.822;9.270;2022-09-01T03:55:28;13.80;1.00
9323;DHT22;4700;48.822;9.270;2022-09-01T03:58:16;13.80;1.00
9323;DHT22;4700;48.822;9.270;2022-09-01T04:01:03;13.80;1.00
9323;DHT22;4700;48.822;9.270;2022-09-01T04:03:48;13.80;1.00
9323;DHT22;4700;48.822;9.270;2022-09-01T04:06:36;13.70;1.00
9323;DHT22;4700;48.822;9.270;2022-09-01T04:09:22;13.70;1.00
9323;DHT22;4700;48.822;9.270;2022-09-01T04:12:09;13.60;1.00
9323;DHT22;4700;48.822;9.270;2022-09-01T04:14:54;13.60;1.00
9323;DHT22;4700;48.822;9.270;2022-09-01T04:17:40;13.60;1.00
9323;DHT22;4700;48.822;9.270;2022-09-01T04:20:44;13.60;1.00
9323;DHT22;4700;48.822;9.270;2022-09-01T04:23:34;13.50;1.00
9323;DHT22;4700;48.822;9.270;2022-09-01T04:26:20;13.50;1.00
9323;DHT22;4700;48.822;9.270;2022-09-01T04:29:09;13.50;1.00
9323;DHT22;4700;48.822;9.270;2022-09-01T04:31:57;13.50;1.00
9323;DHT22;4700;48.822;9.270;2022-09-01T04:34:45;13.50;1.00
9323;DHT22;4700;48.822;9.270;2022-09-01T04:37:30;13.40;1.00
9323;DHT22;4700;48.822;9.270;2022-09-01T04:40:20;13.40;1.00
9323;DHT22;4700;48.822;9.270;2022-09-01T04:43:07;13.40;1.00
9323;DHT22;4700;48.822;9.270;2022-09-01T04:45:54;13.40;1.00
9323;DHT22;4700;48.822;9.270;2022-09-01T04:48:42;13.40;1.00
9323;DHT22;4700;48.822;9.270;2022-09-01T04:51:28;13.50;1.00
9323;DHT22;4700;48.822;9.270;2022-09-01T04:54:14;13.50;1.00
9323;DHT22;4700;48.822;9.270;2022-09-01T04:57:00;13.50;1.00
9323;DHT22;4700;48.822;9.270;2022-09-01T04:59:46;13.50;1.00
9323;DHT22;4700;48.822;9.270;2022-09-01T05:02:33;13.60;1.00
9323;DHT22;4700;48.822;9.270;2022-09-01T05:05:19;13.60;1.00
9323;DHT22;4700;48.822;9.270;2022-09-01T05:08:06;13.70;1.00
9323;DHT22;4700;48.822;9.270;2022-09-01T05:10:57;13.70;1.00
9323;DHT22;4700;48.822;9.270;2022-09-01T05:13:47;13.80;1.00
9323;DHT22;4700;48.822;9.270;2022-09-01T05:16:33;13.80;1.00
9323;DHT22;4700;48.822;9.270;2022-09-01T05:19:20;13.90;1.00
9323;DHT22;4700;48.822;9.270;2022-09-01T05:22:08;13.90;1.00
9323;DHT22;4700;48.822;9.270;2022-09-01T05:24:54;13.90;1.00
9323;DHT22;4700;48.822;9.270;2022-09-01T05:27:41;13.90;1.00
9323;DHT22;4700;48.822;9.270;2022-09-01T05:30:32;13.90;1.00
9323;DHT22;4700;48.822;9.270;2022-09-01T05:33:20;13.90;1.00
9323;DHT22;4700;48.822;9.270;2022-09-01T05:36:07;14.00;1.00
9323;DHT22;4700;48.822;9.270;2022-09-01T05:38:56;14.10;1.00
9323;DHT22;4700;48.822;9.270;2022-09-01T05:41:42;14.20;1.00
9323;DHT22;4700;48.822;9.270;2022-09-01T05:44:32;14.30;1.00
9323;DHT22;4700;48.822;9.270;2022-09-01T05:47:17;14.40;1.00
9323;DHT22;4700;48.822;9.270;2022-09-01T05:50:06;14.40;1.00
9323;DHT22;4700;48.822;9.270;2022-09-01T05:52:55;14.50;1.00
9323;DHT22;4700;48.822;9.270;2022-09-01T05:55:42;14.60;1.00
9323;DHT22;4700;48.822;9.270;2022-09-01T05:58:28;14.80;1.00
9323;DHT22;4700;48.822;9.270;2022-09-01T06:01:16;14.90;1.00
9323;DHT22;4700;48.822;9.270;2022-09-01T06:04:06;14.90;1.00
9323;DHT22;4700;48.822;9.270;2022-09-01T06:06:53;15.00;1.00
9323;DHT22;4700;48.822;9.270;2022-09-01T06:09:44;15.10;1.00
9323;DHT22;4700;48.822;9.270;2022-09-01T06:12:30;15.20;1.00
9323;DHT22;4700;48.822;9.270;2022-09-01T06:15:17;15.30;1.00
9323;DHT22;4700;48.822;9.270;2022-09-01T06:18:04;15.50;1.00
9323;DHT22;4700;48.822;9.270;2022-09-01T06:20:50;15.50;1.00
9323;DHT22;4700;48.822;9.270;2022-09-01T06:23:36;15.70;1.00
9323;DHT22;4700;48.822;9.270;2022-09-01T06:26:25;15.80;1.00
9323;DHT22;4700;48.822;9.270;2022-09-01T06:29:12;15.90;1.00
9323;DHT22;4700;48.822;9.270;2022-09-01T06:31:59;15.90;1.00
9323;DHT22;4700;48.822;9.270;2022-09-01T06:34:45;16.00;1.00
9323;DHT22;4700;48.822;9.270;2022-09-01T06:37:36;16.40;1.00
9323;DHT22;4700;48.822;9.270;2022-09-01T06:40:22;16.80;1.00
9323;DHT22;4700;48.822;9.270;2022-09-01T06:43:11;16.90;1.00
9323;DHT22;4700;48.822;9.270;2022-09-01T06:46:00;17.10;1.00
9323;DHT22;4700;48.822;9.270;2022-09-01T06:48:46;17.60;1.00
9323;DHT22;4700;48.822;9.270;2022-09-01T06:51:32;17.90;1.00
9323;DHT22;4700;48.822;9.270;2022-09-01T06:54:18;17.90;1.00
9323;DHT22;4700;48.822;9.270;2022-09-01T06:57:05;18.70;1.00
9323;DHT22;4700;48.822;9.270;2022-09-01T06:59:52;19.40;1.00
9323;DHT22;4700;48.822;9.270;2022-09-01T07:02:41;19.70;1.00
9323;DHT22;4700;48.822;9.270;2022-09-01T07:05:28;19.40;1.00
9323;DHT22;4700;48.822;9.270;2022-09-01T07:11:06;20.60;1.00
9323;DHT22;4700;48.822;9.270;2022-09-01T07:13:53;24.00;1.00
9323;DHT22;4700;48.822;9.270;2022-09-01T07:16:41;23.80;1.00
9323;DHT22;4700;48.822;9.270;2022-09-01T07:19:28;24.80;1.00
9323;DHT22;4700;48.822;9.270;2022-09-01T07:22:14;24.80;1.00
9323;DHT22;4700;48.822;9.270;2022-09-01T07:25:02;25.20;1.00
9323;DHT22;4700;48.822;9.270;2022-09-01T07:27:48;25.10;1.00
9323;DHT22;4700;48.822;9.270;2022-09-01T07:30:39;26.70;1.00
9323;DHT22;4700;48.822;9.270;2022-09-01T07:33:27;27.90;1.00
9323;DHT22;4700;48.822;9.270;2022-09-01T07:36:15;27.80;1.00
9323;DHT22;4700;48.822;9.270;2022-09-01T07:39:01;28.50;1.00
9323;DHT22;4700;48.822;9.270;2022-09-01T07:41:47;29.10;1.00
9323;DHT22;4700;48.822;9.270;2022-09-01T07:44:32;32.40;1.00
9323;DHT22;4700;48.822;9.270;2022-09-01T07:47:20;32.80;1.00
9323;DHT22;4700;48.822;9.270;2022-09-01T07:50:11;32.90;1.00
9323;DHT22;4700;48.822;9.270;2022-09-01T07:52:59;32.40;1.00
9323;DHT22;4700;48.822;9.270;2022-09-01T07:55:45;28.00;1.00
9323;DHT22;4700;48.822;9.270;2022-09-01T07:58:33;25.40;1.00
9323;DHT22;4700;48.822;9.270;2022-09-01T08:01:25;23.80;1.00
9323;DHT22;4700;48.822;9.270;2022-09-01T08:04:13;23.50;1.00
9323;DHT22;4700;48.822;9.270;2022-09-01T08:07:03;23.80;1.00
9323;DHT22;4700;48.822;9.270;2022-09-01T08:09:51;23.70;1.00
9323;DHT22;4700;48.822;9.270;2022-09-01T08:12:36;23.10;1.00
9323;DHT22;4700;48.822;9.270;2022-09-01T08:15:24;22.00;1.00
9323;DHT22;4700;48.822;9.270;2022-09-01T08:18:10;21.50;1.00
9323;DHT22;4700;48.822;9.270;2022-09-01T08:20:56;21.30;1.00
9323;DHT22;4700;48.822;9.270;2022-09-01T08:23:45;21.00;1.00
9323;DHT22;4700;48.822;9.270;2022-09-01T08:26:32;21.00;1.00
9323;DHT22;4700;48.822;9.270;2022-09-01T08:29:18;20.80;1.00
9323;DHT22;4700;48.822;9.270;2022-09-01T08:32:05;20.80;1.00
9323;DHT22;4700;48.822;9.270;2022-09-01T08:34:57;20.70;1.00
9323;DHT22;4700;48.822;9.270;2022-09-01T08:37:43;20.60;1.00
9323;DHT22;4700;48.822;9.270;2022-09-01T08:43:08;20.20;1.00
9323;DHT22;4700;48.822;9.270;2022-09-01T08:46:04;19.90;1.00
9323;DHT22;4700;48.822;9.270;2022-09-01T08:48:53;20.20;1.00
9323;DHT22;4700;48.822;9.270;2022-09-01T08:51:43;21.30;1.00
9323;DHT22;4700;48.822;9.270;2022-09-01T08:54:36;22.60;1.00
9323;DHT22;4700;48.822;9.270;2022-09-01T08:57:28;22.90;1.00
9323;DHT22;4700;48.822;9.270;2022-09-01T09:00:18;22.20;1.00
9323;DHT22;4700;48.822;9.270;2022-09-01T09:03:15;20.90;1.00
9323;DHT22;4700;48.822;9.270;2022-09-01T09:06:10;20.30;1.00
9323;DHT22;4700;48.822;9.270;2022-09-01T09:08:57;20.00;1.00
9323;DHT22;4700;48.822;9.270;2022-09-01T09:12:04;20.20;1.00
9323;DHT22;4700;48.822;9.270;2022-09-01T09:15:04;19.90;1.00
9323;DHT22;4700;48.822;9.270;2022-09-01T09:17:58;19.90;1.00
9323;DHT22;4700;48.822;9.270;2022-09-01T09:20:46;20.10;1.00
9323;DHT22;4700;48.822;9.270;2022-09-01T09:23:35;20.30;1.00
9323;DHT22;4700;48.822;9.270;2022-09-01T09:26:22;20.00;1.00
9323;DHT22;4700;48.822;9.270;2022-09-01T09:29:08;19.90;1.00
9323;DHT22;4700;48.822;9.270;2022-09-01T09:32:04;19.90;1.00
9323;DHT22;4700;48.822;9.270;2022-09-01T09:34:55;20.10;1.00
9323;DHT22;4700;48.822;9.270;2022-09-01T09:37:42;20.00;1.00
9323;DHT22;4700;48.822;9.270;2022-09-01T09:40:28;19.90;1.00
9323;DHT22;4700;48.822;9.270;2022-09-01T09:43:07;19.70;1.00
9323;DHT22;4700;48.822;9.270;2022-09-01T09:46:21;20.10;1.00
9323;DHT22;4700;48.822;9.270;2022-09-01T09:49:14;20.50;1.00
9323;DHT22;4700;48.822;9.270;2022-09-01T09:52:15;20.70;1.00
9323;DHT22;4700;48.822;9.270;2022-09-01T09:55:22;20.70;1.00
9323;DHT22;4700;48.822;9.270;2022-09-01T09:58:11;21.10;1.00
9323;DHT22;4700;48.822;9.270;2022-09-01T10:01:05;21.00;1.00
9323;DHT22;4700;48.822;9.270;2022-09-01T10:03:54;21.20;1.00
9323;DHT22;4700;48.822;9.270;2022-09-01T10:06:42;21.40;1.00
9323;DHT22;4700;48.822;9.270;2022-09-01T10:09:35;21.90;1.00
9323;DHT22;4700;48.822;9.270;2022-09-01T10:12:22;22.20;1.00
9323;DHT22;4700;48.822;9.270;2022-09-01T10:15:09;22.40;1.00
9323;DHT22;4700;48.822;9.270;2022-09-01T10:18:00;22.60;1.00
9323;DHT22;4700;48.822;9.270;2022-09-01T10:20:56;22.80;1.00
9323;DHT22;4700;48.822;9.270;2022-09-01T10:23:43;23.00;1.00
9323;DHT22;4700;48.822;9.270;2022-09-01T10:26:33;21.90;1.00
9323;DHT22;4700;48.822;9.270;2022-09-01T10:29:25;21.50;1.00
9323;DHT22;4700;48.822;9.270;2022-09-01T10:32:17;21.60;1.00
9323;DHT22;4700;48.822;9.270;2022-09-01T10:35:07;21.70;1.00
9323;DHT22;4700;48.822;9.270;2022-09-01T10:37:58;21.60;1.00
9323;DHT22;4700;48.822;9.270;2022-09-01T10:40:46;21.30;1.00
9323;DHT22;4700;48.822;9.270;2022-09-01T10:43:35;21.30;1.00
9323;DHT22;4700;48.822;9.270;2022-09-01T10:46:42;21.70;1.00
9323;DHT22;4700;48.822;9.270;2022-09-01T10:49:57;21.90;1.00
9323;DHT22;4700;48.822;9.270;2022-09-01T10:53:07;22.00;1.00
9323;DHT22;4700;48.822;9.270;2022-09-01T10:56:00;22.20;1.00
9323;DHT22;4700;48.822;9.270;2022-09-01T10:59:05;21.60;1.00
9323;DHT22;4700;48.822;9.270;2022-09-01T11:02:15;21.20;1.00
9323;DHT22;4700;48.822;9.270;2022-09-01T11:05:14;21.40;1.00
9323;DHT22;4700;48.822;9.270;2022-09-01T11:08:22;21.20;1.00
9323;DHT22;4700;48.822;9.270;2022-09-01T11:11:24;20.80;1.00
9323;DHT22;4700;48.822;9.270;2022-09-01T11:14:19;20.80;1.00
9323;DHT22;4700;48.822;9.270;2022-09-01T11:17:18;20.90;1.00
9323;DHT22;4700;48.822;9.270;2022-09-01T11:20:09;21.00;1.00
9323;DHT22;4700;48.822;9.270;2022-09-01T11:23:02;21.10;1.00
9323;DHT22;4700;48.822;9.270;2022-09-01T11:25:50;21.30;1.00
9323;DHT22;4700;48.822;9.270;2022-09-01T11:28:40;21.50;1.00
9323;DHT22;4700;48.822;9.270;2022-09-01T11:31:39;21.60;1.00
9323;DHT22;4700;48.822;9.270;2022-09-01T11:34:26;21.40;1.00
9323;DHT22;4700;48.822;9.270;2022-09-01T11:37:16;21.50;1.00
9323;DHT22;4700;48.822;9.270;2022-09-01T11:40:05;21.70;1.00
9323;DHT22;4700;48.822;9.270;2022-09-01T11:42:53;22.00;1.00
9323;DHT22;4700;48.822;9.270;2022-09-01T11:46:00;22.00;1.00
9323;DHT22;4700;48.822;9.270;2022-09-01T11:48:53;22.30;1.00
9323;DHT22;4700;48.822;9.270;2022-09-01T11:51:44;22.00;1.00
9323;DHT22;4700;48.822;9.270;2022-09-01T11:54:37;21.60;1.00
9323;DHT22;4700;48.822;9.270;2022-09-01T11:57:30;21.20;1.00
9323;DHT22;4700;48.822;9.270;2022-09-01T12:00:25;21.60;1.00
9323;DHT22;4700;48.822;9.270;2022-09-01T12:03:19;21.30;1.00
9323;DHT22;4700;48.822;9.270;2022-09-01T12:06:10;21.60;1.00
9323;DHT22;4700;48.822;9.270;2022-09-01T12:09:00;21.50;1.00
9323;DHT22;4700;48.822;9.270;2022-09-01T12:11:47;21.90;1.00
9323;DHT22;4700;48.822;9.270;2022-09-01T12:14:34;22.30;1.00
9323;DHT22;4700;48.822;9.270;2022-09-01T12:17:21;22.40;1.00
9323;DHT22;4700;48.822;9.270;2022-09-01T12:20:25;22.20;1.00
9323;DHT22;4700;48.822;9.270;2022-09-01T12:23:18;22.10;1.00
9323;DHT22;4700;48.822;9.270;2022-09-01T12:26:11;22.20;1.00
9323;DHT22;4700;48.822;9.270;2022-09-01T12:28:57;22.20;1.00
9323;DHT22;4700;48.822;9.270;2022-09-01T12:31:45;22.40;1.00
9323;DHT22;4700;48.822;9.270;2022-09-01T12:34:40;22.20;1.00
9323;DHT22;4700;48.822;9.270;2022-09-01T12:37:27;22.40;1.00
9323;DHT22;4700;48.822;9.270;2022-09-01T12:40:30;22.50;1.00
9323;DHT22;4700;48.822;9.270;2022-09-01T12:43:27;22.40;1.00
9323;DHT22;4700;48.822;9.270;2022-09-01T12:46:40;22.40;1.00
9323;DHT22;4700;48.822;9.270;2022-09-01T12:49:34;22.50;1.00
9323;DHT22;4700;48.822;9.270;2022-09-01T12:52:23;22.20;1.00
9323;DHT22;4700;48.822;9.270;2022-09-01T12:55:16;22.30;1.00
9323;DHT22;4700;48.822;9.270;2022-09-01T12:58:11;22.30;1.00
9323;DHT22;4700;48.822;9.270;2022-09-01T13:01:00;22.30;1.00
9323;DHT22;4700;48.822;9.270;2022-09-01T13:07:06;22.60;1.00
9323;DHT22;4700;48.822;9.270;2022-09-01T13:09:51;22.50;1.00
9323;DHT22;4700;48.822;9.270;2022-09-01T13:12:42;22.50;1.00
9323;DHT22;4700;48.822;9.270;2022-09-01T13:15:30;22.50;1.00
9323;DHT22;4700;48.822;9.270;2022-09-01T13:18:16;22.80;1.00
9323;DHT22;4700;48.822;9.270;2022-09-01T13:21:02;23.00;1.00
9323;DHT22;4700;48.822;9.270;2022-09-01T13:23:49;22.70;1.00
9323;DHT22;4700;48.822;9.270;2022-09-01T13:26:35;22.50;1.00
9323;DHT22;4700;48.822;9.270;2022-09-01T13:29:22;22.50;1.00
9323;DHT22;4700;48.822;9.270;2022-09-01T13:32:10;22.60;1.00
9323;DHT22;4700;48.822;9.270;2022-09-01T13:34:55;22.70;1.00
9323;DHT22;4700;48.822;9.270;2022-09-01T13:37:54;22.50;1.00
9323;DHT22;4700;48.822;9.270;2022-09-01T13:40:49;22.40;1.00
9323;DHT22;4700;48.822;9.270;2022-09-01T13:43:42;22.60;1.00
9323;DHT22;4700;48.822;9.270;2022-09-01T13:46:35;22.50;1.00
9323;DHT22;4700;48.822;9.270;2022-09-01T13:49:22;22.60;1.00
9323;DHT22;4700;48.822;9.270;2022-09-01T13:52:07;22.40;1.00
9323;DHT22;4700;48.822;9.270;2022-09-01T13:54:53;22.10;1.00
9323;DHT22;4700;48.822;9.270;2022-09-01T13:57:39;22.10;1.00
9323;DHT22;4700;48.822;9.270;2022-09-01T14:00:28;22.20;1.00
9323;DHT22;4700;48.822;9.270;2022-09-01T14:03:18;22.50;1.00
9323;DHT22;4700;48.822;9.270;2022-09-01T14:06:06;22.70;1.00
9323;DHT22;4700;48.822;9.270;2022-09-01T14:08:52;22.70;1.00
9323;DHT22;4700;48.822;9.270;2022-09-01T14:11:38;22.90;1.00
9323;DHT22;4700;48.822;9.270;2022-09-01T14:14:24;22.80;1.00
9323;DHT22;4700;48.822;9.270;2022-09-01T14:17:10;22.60;1.00
9323;DHT22;4700;48.822;9.270;2022-09-01T14:19:56;22.60;1.00
9323;DHT22;4700;48.822;9.270;2022-09-01T14:22:43;22.70;1.00
9323;DHT22;4700;48.822;9.270;2022-09-01T14:25:30;22.80;1.00
9323;DHT22;4700;48.822;9.270;2022-09-01T14:28:18;22.70;1.00
9323;DHT22;4700;48.822;9.270;2022-09-01T14:31:10;22.70;1.00
9323;DHT22;4700;48.822;9.270;2022-09-01T14:33:56;22.50;1.00
9323;DHT22;4700;48.822;9.270;2022-09-01T14:36:46;22.50;1.00
9323;DHT22;4700;48.822;9.270;2022-09-01T14:39:34;22.60;1.00
9323;DHT22;4700;48.822;9.270;2022-09-01T14:42:22;22.60;1.00
9323;DHT22;4700;48.822;9.270;2022-09-01T14:45:10;22.80;1.00
9323;DHT22;4700;48.822;9.270;2022-09-01T14:47:58;23.00;1.00
9323;DHT22;4700;48.822;9.270;2022-09-01T14:50:47;23.10;1.00
9323;DHT22;4700;48.822;9.270;2022-09-01T14:53:35;23.00;1.00
9323;DHT22;4700;48.822;9.270;2022-09-01T14:56:22;23.00;1.00
9323;DHT22;4700;48.822;9.270;2022-09-01T14:59:09;23.00;1.00
9323;DHT22;4700;48.822;9.270;2022-09-01T15:01:55;23.10;1.00
9323;DHT22;4700;48.822;9.270;2022-09-01T15:04:40;23.20;1.00
9323;DHT22;4700;48.822;9.270;2022-09-01T15:07:26;23.40;1.00
9323;DHT22;4700;48.822;9.270;2022-09-01T15:10:15;23.10;1.00
9323;DHT22;4700;48.822;9.270;2022-09-01T15:13:03;23.10;1.00
9323;DHT22;4700;48.822;9.270;2022-09-01T15:15:51;22.80;1.00
9323;DHT22;4700;48.822;9.270;2022-09-01T15:18:37;22.50;1.00
9323;DHT22;4700;48.822;9.270;2022-09-01T15:21:25;22.60;1.00
9323;DHT22;4700;48.822;9.270;2022-09-01T15:24:14;22.60;1.00
9323;DHT22;4700;48.822;9.270;2022-09-01T15:27:02;22.60;1.00
9323;DHT22;4700;48.822;9.270;2022-09-01T15:29:50;22.50;1.00
9323;DHT22;4700;48.822;9.270;2022-09-01T15:32:39;22.70;1.00
9323;DHT22;4700;48.822;9.270;2022-09-01T15:35:29;22.80;1.00
9323;DHT22;4700;48.822;9.270;2022-09-01T15:38:18;23.00;1.00
9323;DHT22;4700;48.822;9.270;2022-09-01T15:41:03;23.40;1.00
9323;DHT22;4700;48.822;9.270;2022-09-01T15:43:50;23.40;1.00
9323;DHT22;4700;48.822;9.270;2022-09-01T15:46:38;23.30;1.00
9323;DHT22;4700;48.822;9.270;2022-09-01T15:49:26;23.30;1.00
9323;DHT22;4700;48.822;9.270;2022-09-01T15:52:12;23.20;1.00
9323;DHT22;4700;48.822;9.270;2022-09-01T15:55:10;23.00;1.00
9323;DHT22;4700;48.822;9.270;2022-09-01T15:58:05;22.80;1.00
9323;DHT22;4700;48.822;9.270;2022-09-01T16:01:08;22.70;1.00
9323;DHT22;4700;48.822;9.270;2022-09-01T16:04:06;22.60;1.00
9323;DHT22;4700;48.822;9.270;2022-09-01T16:07:09;22.60;1.00
9323;DHT22;4700;48.822;9.270;2022-09-01T16:10:08;22.60;1.00
9323;DHT22;4700;48.822;9.270;2022-09-01T16:12:43;22.50;1.00
9323;DHT22;4700;48.822;9.270;2022-09-01T16:15:30;22.60;1.00
9323;DHT22;4700;48.822;9.270;2022-09-01T16:18:23;22.70;1.00
9323;DHT22;4700;48.822;9.270;2022-09-01T16:21:19;23.00;1.00
9323;DHT22;4700;48.822;9.270;2022-09-01T16:24:09;23.10;1.00
9323;DHT22;4700;48.822;9.270;2022-09-01T16:26:55;22.90;1.00
9323;DHT22;4700;48.822;9.270;2022-09-01T16:29:44;22.80;1.00
9323;DHT22;4700;48.822;9.270;2022-09-01T16:32:32;22.60;1.00
9323;DHT22;4700;48.822;9.270;2022-09-01T16:35:21;22.50;1.00
9323;DHT22;4700;48.822;9.270;2022-09-01T16:38:15;22.50;1.00
9323;DHT22;4700;48.822;9.270;2022-09-01T16:41:11;22.50;1.00
9323;DHT22;4700;48.822;9.270;2022-09-01T16:44:07;22.50;1.00
9323;DHT22;4700;48.822;9.270;2022-09-01T16:47:01;22.40;1.00
9323;DHT22;4700;48.822;9.270;2022-09-01T16:49:56;22.30;1.00
9323;DHT22;4700;48.822;9.270;2022-09-01T16:53:02;22.20;1.00
9323;DHT22;4700;48.822;9.270;2022-09-01T16:55:58;22.20;1.00
9323;DHT22;4700;48.822;9.270;2022-09-01T16:58:50;22.10;1.00
9323;DHT22;4700;48.822;9.270;2022-09-01T17:01:43;22.00;1.00
9323;DHT22;4700;48.822;9.270;2022-09-01T17:04:34;21.90;1.00
9323;DHT22;4700;48.822;9.270;2022-09-01T17:07:27;21.80;1.00
9323;DHT22;4700;48.822;9.270;2022-09-01T17:10:22;21.70;1.00
9323;DHT22;4700;48.822;9.270;2022-09-01T17:12:55;21.60;1.00
9323;DHT22;4700;48.822;9.270;2022-09-01T17:15:42;21.60;1.00
9323;DHT22;4700;48.822;9.270;2022-09-01T17:18:33;21.50;1.00
9323;DHT22;4700;48.822;9.270;2022-09-01T17:21:23;21.50;1.00
9323;DHT22;4700;48.822;9.270;2022-09-01T17:24:20;21.50;1.00
9323;DHT22;4700;48.822;9.270;2022-09-01T17:27:13;21.40;1.00
9323;DHT22;4700;48.822;9.270;2022-09-01T17:30:01;21.40;1.00
9323;DHT22;4700;48.822;9.270;2022-09-01T17:32:58;21.30;1.00
9323;DHT22;4700;48.822;9.270;2022-09-01T17:36:07;21.30;1.00
9323;DHT22;4700;48.822;9.270;2022-09-01T17:39:00;21.20;1.00
9323;DHT22;4700;48.822;9.270;2022-09-01T17:41:51;21.20;1.00
9323;DHT22;4700;48.822;9.270;2022-09-01T17:44:44;21.10;1.00
9323;DHT22;4700;48.822;9.270;2022-09-01T17:47:35;21.10;1.00
9323;DHT22;4700;48.822;9.270;2022-09-01T17:50:30;21.00;1.00
9323;DHT22;4700;48.822;9.270;2022-09-01T17:53:24;20.90;1.00
9323;DHT22;4700;48.822;9.270;2022-09-01T17:56:37;20.90;1.00
9323;DHT22;4700;48.822;9.270;2022-09-01T17:59:32;20.80;1.00
9323;DHT22;4700;48.822;9.270;2022-09-01T18:02:32;20.80;1.00
9323;DHT22;4700;48.822;9.270;2022-09-01T18:05:22;20.70;1.00
9323;DHT22;4700;48.822;9.270;2022-09-01T18:08:31;20.60;1.00
9323;DHT22;4700;48.822;9.270;2022-09-01T18:11:24;20.50;1.00
9323;DHT22;4700;48.822;9.270;2022-09-01T18:14:13;20.40;1.00
9323;DHT22;4700;48.822;9.270;2022-09-01T18:17:06;20.40;1.00
9323;DHT22;4700;48.822;9.270;2022-09-01T18:20:01;20.30;1.00
9323;DHT22;4700;48.822;9.270;2022-09-01T18:22:53;20.20;1.00
9323;DHT22;4700;48.822;9.270;2022-09-01T18:25:42;20.10;1.00
9323;DHT22;4700;48.822;9.270;2022-09-01T18:28:30;20.00;1.00
9323;DHT22;4700;48.822;9.270;2022-09-01T18:31:28;19.90;1.00
9323;DHT22;4700;48.822;9.270;2022-09-01T18:34:33;19.80;1.00
9323;DHT22;4700;48.822;9.270;2022-09-01T18:37:23;19.80;1.00
9323;DHT22;4700;48.822;9.270;2022-09-01T18:40:18;19.70;1.00
9323;DHT22;4700;48.822;9.270;2022-09-01T18:43:08;19.70;1.00
9323;DHT22;4700;48.822;9.270;2022-09-01T18:46:02;19.60;1.00
9323;DHT22;4700;48.822;9.270;2022-09-01T18:48:56;19.50;1.00
9323;DHT22;4700;48.822;9.270;2022-09-01T18:51:54;19.40;1.00
9323;DHT22;4700;48.822;9.270;2022-09-01T18:54:48;19.40;1.00